Time;durP1;ratioP1;P1;durP2;ratioP2;P2;SDS_P1;SDS_P2;PMS_P1;PMS_P2;Temp;Humidity;BMP_temperature;BMP_pressure;BME280_temperature;BME280_humidity;BME280_pressure;Samples;Min_cycle;Max_cycle;Signal;HPM_P1;HPM_P2
2022/08/28 00:01:50;;;;;;;19.63;8.80;;;;;;;22.02;100.00;97934.69;5173867;27;20081;-49
2022/08/28 00:04:16;;;;;;;13.02;7.35;;;;;;;22.08;100.00;97980.25;5174002;27;20137;-49
2022/08/28 00:06:42;;;;;;;13.45;7.32;;;;;;;21.88;100.00;97969.63;5173979;27;20508;-49
2022/08/28 00:09:08;;;;;;;16.02;9.15;;;;;;;22.18;100.00;97979.00;5173815;27;20490;-49
2022/08/28 00:11:36;;;;;;;12.43;7.15;;;;;;;22.05;100.00;97962.44;5173716;27;20505;-49
2022/08/28 00:14:03;;;;;;;10.55;6.88;;;;;;;22.22;100.00;97964.88;5174104;27;20047;-49
2022/08/28 00:16:30;;;;;;;14.90;6.88;;;;;;;22.08;100.00;97972.66;5173755;27;20081;-49
2022/08/28 00:18:56;;;;;;;14.98;6.82;;;;;;;22.24;100.00;97954.00;5173712;27;20053;-49
2022/08/28 00:21:23;;;;;;;13.30;7.07;;;;;;;22.28;100.00;97955.38;5173670;27;20190;-48
2022/08/28 00:23:49;;;;;;;16.33;7.85;;;;;;;22.24;100.00;97954.00;5173469;27;20137;-49
2022/08/28 00:28:57;;;;;;;9.45;6.97;;;;;;;22.20;100.00;97889.97;5172327;27;20095;-50
2022/08/28 00:31:23;;;;;;;11.25;6.35;;;;;;;21.85;100.00;97892.47;5173617;27;20081;-52
2022/08/28 00:33:50;;;;;;;12.27;6.68;;;;;;;21.75;100.00;97877.78;5173589;27;20067;-52
2022/08/28 00:36:16;;;;;;;16.70;8.23;;;;;;;21.71;100.00;97915.47;5173850;27;20078;-51
2022/08/28 00:38:42;;;;;;;15.68;7.43;;;;;;;21.51;100.00;97883.28;5173798;27;20809;-53
2022/08/28 00:41:09;;;;;;;18.20;7.07;;;;;;;21.46;100.00;97888.72;5173750;27;20102;-49
2022/08/28 00:43:37;;;;;;;14.63;7.18;;;;;;;21.54;100.00;97893.50;5173747;27;20057;-51
2022/08/28 00:46:08;;;;;;;13.57;6.78;;;;;;;21.71;100.00;97907.84;5173708;27;20049;-51
2022/08/28 00:48:35;;;;;;;14.60;6.25;;;;;;;21.50;100.00;97909.63;5173217;27;20519;-52
2022/08/28 00:53:47;;;;;;;14.93;7.03;;;;;;;21.57;100.00;97877.88;5173447;27;20054;-53
2022/08/28 00:56:16;;;;;;;11.40;6.82;;;;;;;21.54;100.00;97896.31;5173160;27;20050;-51
2022/08/28 00:58:45;;;;;;;11.00;6.82;;;;;;;21.65;100.00;97889.44;5172956;27;20186;-51
2022/08/28 01:01:14;;;;;;;23.38;8.35;;;;;;;21.67;100.00;97895.34;5173108;27;20449;-52
2022/08/28 01:03:41;;;;;;;14.82;7.68;;;;;;;21.81;100.00;97900.22;5173058;27;20050;-53
2022/08/28 01:06:10;;;;;;;12.10;7.03;;;;;;;21.72;100.00;97908.63;5172962;27;20050;-49
2022/08/28 01:08:39;;;;;;;14.52;7.28;;;;;;;21.75;100.00;97891.72;5173093;27;20050;-52
2022/08/28 01:11:07;;;;;;;11.98;6.60;;;;;;;21.71;100.00;97870.84;5172984;27;20054;-53
2022/08/28 01:13:36;;;;;;;17.42;6.85;;;;;;;21.54;100.00;97870.44;5172883;27;20106;-50
2022/08/28 01:16:03;;;;;;;14.23;7.22;;;;;;;21.65;100.00;97865.13;5172940;27;20046;-52
2022/08/28 01:18:32;;;;;;;13.85;7.43;;;;;;;21.60;100.00;97858.19;5172759;27;20053;-50
2022/08/28 01:21:07;;;;;;;15.57;7.20;;;;;;;21.40;100.00;97818.91;5172923;27;20053;-48
2022/08/28 01:23:50;;;;;;;9.88;7.45;;;;;;;21.37;100.00;97839.38;5172623;27;20054;-52
2022/08/28 01:26:16;;;;;;;12.95;6.80;;;;;;;21.38;100.00;97829.75;5172665;27;20138;-50
2022/08/28 01:28:43;;;;;;;16.83;8.43;;;;;;;21.45;100.00;97829.41;5172913;27;20050;-49
2022/08/28 01:31:11;;;;;;;15.52;6.90;;;;;;;21.10;100.00;97804.75;5172870;27;20061;-49
2022/08/28 01:33:38;;;;;;;12.75;7.22;;;;;;;21.10;100.00;97799.16;5172529;27;20077;-49
2022/08/28 01:36:04;;;;;;;10.27;6.55;;;;;;;21.04;100.00;97809.41;5172443;27;20078;-48
2022/08/28 01:38:30;;;;;;;13.07;6.35;;;;;;;21.12;100.00;97793.88;5171464;27;20056;-50
2022/08/28 01:40:58;;;;;;;8.75;6.28;;;;;;;21.31;100.00;97808.53;5172513;27;20133;-49
2022/08/28 01:43:26;;;;;;;11.45;7.47;;;;;;;21.03;100.00;97795.94;5172684;27;20412;-52
2022/08/28 01:45:56;;;;;;;10.52;6.53;;;;;;;21.21;100.00;97781.16;5172508;27;20089;-48
2022/08/28 01:48:24;;;;;;;12.10;6.95;;;;;;;21.19;100.00;97792.00;5172783;27;20527;-53
2022/08/28 01:50:51;;;;;;;10.57;6.57;;;;;;;21.35;100.00;97800.78;5172308;27;20136;-51
2022/08/28 01:53:22;;;;;;;13.40;6.35;;;;;;;21.15;100.00;97787.38;5172299;27;20046;-52
2022/08/28 01:55:49;;;;;;;13.70;7.00;;;;;;;21.04;100.00;97756.47;5172169;27;20046;-52
2022/08/28 01:58:16;;;;;;;13.13;7.07;;;;;;;21.18;100.00;97763.38;5171905;27;20519;-52
2022/08/28 02:00:42;;;;;;;12.95;6.60;;;;;;;20.83;100.00;97746.31;5172153;27;20069;-48
2022/08/28 02:03:09;;;;;;;11.60;6.82;;;;;;;20.76;100.00;97746.63;5172328;27;20050;-50
2022/08/28 02:05:36;;;;;;;11.55;6.68;;;;;;;20.84;100.00;97745.06;5172425;27;20046;-52
2022/08/28 02:08:05;;;;;;;11.73;6.50;;;;;;;20.87;100.00;97744.13;5171951;27;20050;-50
2022/08/28 02:10:34;;;;;;;15.30;7.30;;;;;;;20.75;100.00;97751.44;5172205;27;20137;-52
2022/08/28 02:13:01;;;;;;;13.15;6.80;;;;;;;21.03;100.00;97754.91;5172026;27;20133;-50
2022/08/28 02:15:30;;;;;;;19.42;7.38;;;;;;;21.08;100.00;97753.50;5172101;27;20137;-52
2022/08/28 02:17:56;;;;;;;10.98;6.50;;;;;;;21.07;100.00;97744.38;5171989;27;20557;-51
2022/08/28 02:20:24;;;;;;;10.85;7.15;;;;;;;20.99;100.00;97754.28;5171949;27;20141;-53
2022/08/28 02:22:50;;;;;;;15.63;7.22;;;;;;;20.92;100.00;97749.06;5171889;27;20073;-49
2022/08/28 02:25:17;;;;;;;14.60;7.47;;;;;;;20.79;100.00;97745.69;5171722;27;20046;-50
2022/08/28 02:27:44;;;;;;;12.85;6.55;;;;;;;20.90;100.00;97734.84;5171569;27;20136;-51
2022/08/28 02:30:13;;;;;;;14.68;6.97;;;;;;;20.84;100.00;97745.06;5171725;27;20042;-49
2022/08/28 02:32:40;;;;;;;13.75;6.88;;;;;;;20.70;100.00;97743.72;5171909;27;20042;-49
2022/08/28 02:35:09;;;;;;;10.25;6.75;;;;;;;20.73;100.00;97739.22;5171810;27;20088;-53
2022/08/28 02:37:38;;;;;;;12.77;6.78;;;;;;;20.74;100.00;97746.34;5171734;27;20485;-48
2022/08/28 02:40:05;;;;;;;16.15;7.03;;;;;;;20.50;100.00;97738.63;5171583;27;20105;-49
2022/08/28 02:42:32;;;;;;;13.77;6.80;;;;;;;20.36;100.00;97736.47;5171951;27;20050;-49
2022/08/28 02:44:58;;;;;;;11.25;6.72;;;;;;;20.31;100.00;97751.78;5171652;27;20047;-50
2022/08/28 02:47:24;;;;;;;11.48;6.38;;;;;;;20.45;100.00;97750.38;5171572;27;20113;-49
2022/08/28 02:49:52;;;;;;;11.10;6.75;;;;;;;20.32;100.00;97741.41;5173952;27;20071;-53
2022/08/28 02:52:18;;;;;;;13.32;7.63;;;;;;;20.04;100.00;97755.34;5175101;27;20046;-49
2022/08/28 02:54:45;;;;;;;14.75;7.72;;;;;;;20.20;100.00;97780.06;5174959;27;20091;-53
2022/08/28 02:57:11;;;;;;;12.25;7.18;;;;;;;20.26;100.00;97773.88;5175264;27;20046;-52
2022/08/28 02:59:38;;;;;;;12.20;6.53;;;;;;;20.11;100.00;97773.72;5175144;27;20476;-50
2022/08/28 03:02:06;;;;;;;13.05;7.32;;;;;;;20.26;100.00;97791.38;5174959;27;20054;-50
2022/08/28 03:04:32;;;;;;;12.00;7.03;;;;;;;20.10;100.00;97788.88;5175161;27;20050;-53
2022/08/28 03:06:59;;;;;;;10.02;9.02;;;;;;;20.20;100.00;97807.91;5174853;27;20057;-50
2022/08/28 03:09:26;;;;;;;14.07;6.63;;;;;;;20.21;100.00;97820.56;5175015;27;20045;-49
2022/08/28 03:11:53;;;;;;;14.65;7.15;;;;;;;20.16;100.00;97812.84;5174876;27;20529;-52
2022/08/28 03:14:19;;;;;;;10.35;7.07;;;;;;;20.05;100.00;97834.00;5175006;27;20476;-52
2022/08/28 03:16:46;;;;;;;11.73;7.50;;;;;;;20.13;100.00;97824.91;5174734;27;20125;-51
2022/08/28 03:19:12;;;;;;;12.63;9.73;;;;;;;19.98;100.00;97843.41;5174649;27;20083;-52
2022/08/28 03:21:38;;;;;;;10.10;8.95;;;;;;;19.99;100.00;97858.84;5174713;27;20046;-49
2022/08/28 03:24:06;;;;;;;17.45;7.32;;;;;;;19.95;100.00;97861.03;5174570;27;20118;-50
2022/08/28 03:26:32;;;;;;;13.35;10.18;;;;;;;19.94;100.00;97884.50;5174787;27;20053;-49
2022/08/28 03:28:59;;;;;;;19.90;7.13;;;;;;;19.89;100.00;97896.22;5174432;27;20050;-53
2022/08/28 03:31:28;;;;;;;11.30;7.18;;;;;;;19.91;100.00;97905.66;5174678;27;20098;-52
2022/08/28 03:33:54;;;;;;;11.10;7.05;;;;;;;19.94;100.00;97901.97;5174418;27;20477;-49
2022/08/28 03:36:23;;;;;;;16.25;9.73;;;;;;;19.89;100.00;97921.25;5174633;27;20139;-52
2022/08/28 03:38:50;;;;;;;15.85;7.22;;;;;;;19.95;100.00;97928.53;5174299;27;20050;-49
2022/08/28 03:41:20;;;;;;;15.38;7.97;;;;;;;20.00;100.00;97921.63;5174210;27;20523;-50
2022/08/28 03:43:47;;;;;;;13.45;7.50;;;;;;;20.08;100.00;97919.31;5174367;27;20129;-48
2022/08/28 03:46:15;;;;;;;10.85;7.07;;;;;;;20.02;100.00;97927.47;5174283;27;20046;-48
2022/08/28 03:48:42;;;;;;;11.77;6.78;;;;;;;20.00;100.00;97943.88;5174248;27;20085;-48
2022/08/28 03:51:10;;;;;;;9.35;7.05;;;;;;;20.15;100.00;97927.38;5174112;27;20050;-48
2022/08/28 03:53:37;;;;;;;15.82;8.02;;;;;;;20.16;100.00;97917.81;5174089;27;20133;-48
2022/08/28 03:56:06;;;;;;;14.10;7.68;;;;;;;20.22;100.00;97922.28;5174290;27;20140;-49
2022/08/28 03:58:33;;;;;;;10.60;6.97;;;;;;;20.19;100.00;97914.88;5174285;27;20053;-50
2022/08/28 04:00:59;;;;;;;10.68;6.90;;;;;;;20.09;100.00;97927.22;5173007;27;20122;-49
2022/08/28 04:03:26;;;;;;;13.55;6.90;;;;;;;20.28;100.00;97910.56;5174169;27;20621;-48
2022/08/28 04:05:52;;;;;;;15.27;7.07;;;;;;;20.29;100.00;97912.88;5174044;27;20129;-48
2022/08/28 04:08:20;;;;;;;15.00;7.43;;;;;;;20.40;100.00;97874.25;5173986;27;20081;-50
2022/08/28 04:10:48;;;;;;;11.50;6.90;;;;;;;20.45;100.00;97843.00;5173861;27;20132;-48
2022/08/28 04:13:16;;;;;;;12.45;7.40;;;;;;;20.42;100.00;97871.00;5173874;27;20046;-49
2022/08/28 04:15:43;;;;;;;13.90;6.72;;;;;;;20.46;100.00;97902.25;5174022;27;20046;-50
2022/08/28 04:18:11;;;;;;;13.70;7.72;;;;;;;20.56;100.00;97880.75;5173955;27;20753;-50
2022/08/28 04:20:37;;;;;;;10.38;7.07;;;;;;;20.65;100.00;97867.63;5174140;27;20046;-49
2022/08/28 04:23:07;;;;;;;14.32;7.60;;;;;;;20.71;100.00;97908.78;5174040;27;20930;-50
2022/08/28 04:25:33;;;;;;;14.02;7.32;;;;;;;20.71;100.00;97886.50;5173900;27;20046;-51
2022/08/28 04:28:00;;;;;;;17.17;7.20;;;;;;;20.73;100.00;97934.16;5173882;27;20129;-50
2022/08/28 04:30:26;;;;;;;18.98;6.95;;;;;;;20.68;100.00;97944.66;5173837;27;20057;-49
2022/08/28 04:32:53;;;;;;;13.70;8.10;;;;;;;20.66;100.00;97919.31;5173881;27;20046;-52
2022/08/28 04:35:20;;;;;;;9.73;7.50;;;;;;;20.64;100.00;97885.56;5173997;27;20160;-49
2022/08/28 04:37:46;;;;;;;15.90;8.00;;;;;;;20.86;100.00;97870.72;5173732;27;20102;-53
2022/08/28 04:40:14;;;;;;;17.60;8.05;;;;;;;20.92;100.00;97897.50;5173724;27;20057;-50
2022/08/28 04:42:41;;;;;;;12.23;7.57;;;;;;;20.80;100.00;97908.78;5173691;27;20103;-51
2022/08/28 04:45:08;;;;;;;17.10;7.90;;;;;;;21.00;100.00;97936.94;5173547;27;20161;-52
2022/08/28 04:47:35;;;;;;;13.50;7.85;;;;;;;21.10;100.00;97916.19;5173500;27;20658;-49
2022/08/28 04:50:03;;;;;;;21.30;7.63;;;;;;;21.10;100.00;97882.00;5173301;27;20054;-48
2022/08/28 04:52:29;;;;;;;13.13;7.55;;;;;;;21.08;100.00;97878.88;5173502;27;20435;-49
2022/08/28 04:54:55;;;;;;;14.70;7.93;;;;;;;21.15;100.00;97870.97;5173468;27;20056;-53
2022/08/28 04:57:22;;;;;;;13.80;7.68;;;;;;;21.20;100.00;97880.72;5173644;27;20551;-52
2022/08/28 04:59:48;;;;;;;10.93;7.38;;;;;;;21.28;100.00;97861.66;5173213;27;20072;-49
2022/08/28 05:02:14;;;;;;;18.13;8.27;;;;;;;21.23;100.00;97853.94;5173200;27;20099;-51
2022/08/28 05:04:40;;;;;;;18.13;7.85;;;;;;;21.46;100.00;97866.41;5173006;27;20084;-49
2022/08/28 05:07:07;;;;;;;15.13;7.55;;;;;;;21.32;100.00;97859.47;5172992;27;20058;-50
2022/08/28 05:09:34;;;;;;;12.75;7.55;;;;;;;21.43;100.00;97856.25;5172820;27;20148;-52
2022/08/28 05:12:02;;;;;;;13.43;7.65;;;;;;;21.49;100.00;97863.50;5173009;27;20050;-49
2022/08/28 05:14:29;;;;;;;19.10;7.93;;;;;;;21.51;100.00;97847.03;5172808;27;20050;-49
2022/08/28 05:16:56;;;;;;;22.70;7.97;;;;;;;21.21;100.00;97864.78;5172978;27;20046;-49
2022/08/28 05:19:23;;;;;;;15.40;7.03;;;;;;;21.18;100.00;97890.78;5172983;27;20076;-48
2022/08/28 05:21:50;;;;;;;9.70;7.22;;;;;;;21.54;100.00;97817.47;5172648;27;20494;-50
2022/08/28 05:24:17;;;;;;;13.27;7.72;;;;;;;21.60;100.00;97782.88;5172921;27;20502;-49
2022/08/28 05:26:44;;;;;;;15.40;7.78;;;;;;;21.65;100.00;97777.91;5172645;27;20570;-49
2022/08/28 05:29:11;;;;;;;11.10;7.57;;;;;;;21.08;100.00;97821.13;5172764;27;20046;-53
2022/08/28 05:31:40;;;;;;;19.30;8.25;;;;;;;21.08;100.00;97862.16;5172515;27;20050;-51
2022/08/28 05:34:06;;;;;;;17.38;8.10;;;;;;;21.21;100.00;97820.94;5172779;27;20532;-51
2022/08/28 05:36:34;;;;;;;11.82;8.10;;;;;;;21.24;100.00;97824.81;5172497;27;20054;-53
2022/08/28 05:39:04;;;;;;;15.85;7.97;;;;;;;21.50;100.00;97814.06;5172774;27;20052;-49
2022/08/28 05:41:31;;;;;;;15.88;7.45;;;;;;;21.14;100.00;97860.31;5172330;27;20082;-52
2022/08/28 05:43:58;;;;;;;27.05;7.57;;;;;;;21.21;100.00;97854.41;5172399;27;20527;-51
2022/08/28 05:46:26;;;;;;;29.60;8.40;;;;;;;21.61;100.00;97842.97;5172499;27;20107;-49
2022/08/28 05:48:52;;;;;;;20.92;8.30;;;;;;;21.59;100.00;97848.28;5172251;27;20046;-54
2022/08/28 05:51:21;;;;;;;12.00;7.50;;;;;;;21.61;100.00;97826.25;5172489;27;20509;-51
2022/08/28 05:53:48;;;;;;;14.13;7.97;;;;;;;21.29;100.00;97872.34;5172149;27;20081;-49
2022/08/28 05:56:17;;;;;;;14.98;7.90;;;;;;;21.68;100.00;97838.31;5172054;27;20072;-49
2022/08/28 05:58:44;;;;;;;16.60;8.20;;;;;;;21.63;100.00;97825.03;5172075;27;20501;-52
2022/08/28 06:01:12;;;;;;;21.25;7.88;;;;;;;21.62;100.00;97860.47;5172136;27;20057;-50
2022/08/28 06:03:40;;;;;;;16.17;7.70;;;;;;;21.51;100.00;97863.78;5172103;27;20470;-49
2022/08/28 06:06:07;;;;;;;16.75;7.97;;;;;;;21.53;100.00;97875.25;5172173;27;20487;-52
2022/08/28 06:08:34;;;;;;;14.77;8.40;;;;;;;21.59;100.00;97880.94;5171802;27;20255;-53
2022/08/28 06:11:01;;;;;;;12.07;7.28;;;;;;;22.06;100.00;97818.88;5172232;27;20050;-51
2022/08/28 06:13:28;;;;;;;14.07;7.65;;;;;;;22.37;100.00;97794.66;5171865;27;20509;-49
2022/08/28 06:15:55;;;;;;;16.83;8.40;;;;;;;22.47;100.00;97785.72;5171946;27;20050;-51
2022/08/28 06:18:22;;;;;;;22.30;8.50;;;;;;;22.64;100.00;97818.78;5171936;27;20057;-51
2022/08/28 06:20:48;;;;;;;11.95;7.72;;;;;;;22.55;100.00;97812.00;5171799;27;20046;-53
2022/08/28 06:23:17;;;;;;;16.88;10.70;;;;;;;23.05;100.00;97768.69;5172152;27;20095;-52
2022/08/28 06:25:45;;;;;;;15.00;10.52;;;;;;;23.11;100.00;97742.38;5175483;27;20399;-52
2022/08/28 06:28:14;;;;;;;12.63;7.93;;;;;;;23.24;100.00;97772.84;5175533;27;20417;-52
2022/08/28 06:30:42;;;;;;;16.23;8.10;;;;;;;23.14;100.00;97755.41;5175600;27;20082;-49
2022/08/28 06:33:11;;;;;;;14.50;8.13;;;;;;;23.67;100.00;97723.63;5175545;27;20110;-52
2022/08/28 06:35:40;;;;;;;15.57;8.48;;;;;;;23.59;100.00;97789.66;5175360;27;20046;-53
2022/08/28 06:38:08;;;;;;;12.10;7.78;;;;;;;23.92;100.00;97736.16;5175346;27;20050;-50
2022/08/28 06:40:38;;;;;;;16.13;8.25;;;;;;;23.72;100.00;97719.38;5175244;27;20088;-53
2022/08/28 06:43:04;;;;;;;19.35;10.27;;;;;;;24.30;100.00;97700.72;5175465;27;20050;-50
2022/08/28 06:45:31;;;;;;;17.65;8.30;;;;;;;24.37;100.00;97708.69;5176033;27;20120;-51
2022/08/28 06:47:57;;;;;;;12.18;10.90;;;;;;;24.17;100.00;97706.69;5175265;27;20046;-53
2022/08/28 06:50:24;;;;;;;15.30;10.30;;;;;;;25.65;100.00;97698.22;5175523;27;20061;-50
2022/08/28 06:52:51;;;;;;;12.77;7.72;;;;;;;26.33;100.00;97818.00;5175127;27;20576;-51
2022/08/28 06:55:17;;;;;;;15.95;9.75;;;;;;;27.00;100.00;97873.69;5175228;27;20042;-50
2022/08/28 06:57:43;;;;;;;13.90;10.05;;;;;;;28.31;100.00;97966.16;5175272;27;20108;-54
2022/08/28 07:00:11;;;;;;;18.83;9.98;;;;;;;29.01;100.00;98052.41;5175104;27;20046;-53
2022/08/28 07:02:37;;;;;;;17.90;9.98;;;;;;;29.89;100.00;98132.91;5174992;27;20046;-52
2022/08/28 07:05:04;;;;;;;17.17;10.05;;;;;;;29.91;100.00;98128.25;5175027;27;20561;-53
2022/08/28 07:07:31;;;;;;;14.43;9.40;;;;;;;29.82;100.00;98122.16;5174875;27;20049;-52
2022/08/28 07:09:58;;;;;;;16.20;9.35;;;;;;;30.35;100.00;98182.22;5174950;27;20132;-50
2022/08/28 07:12:24;;;;;;;18.83;9.60;;;;;;;30.91;100.00;98210.13;5175077;27;20085;-54
2022/08/28 07:14:50;;;;;;;16.80;9.40;;;;;;;30.51;100.00;98169.28;5174804;27;20526;-53
2022/08/28 07:17:16;;;;;;;16.83;8.60;;;;;;;30.22;100.00;98146.88;5174947;27;20046;-52
2022/08/28 07:19:43;;;;;;;11.80;8.88;;;;;;;31.47;100.00;98189.03;5174656;27;20061;-54
2022/08/28 07:22:09;;;;;;;17.13;9.07;;;;;;;31.76;100.00;98190.22;5174914;27;20142;-55
2022/08/28 07:24:36;;;;;;;17.65;9.23;;;;;;;30.98;100.00;98205.94;5174628;27;20046;-54
2022/08/28 07:27:04;;;;;;;13.32;8.52;;;;;;;30.46;100.00;98151.84;5174485;27;20501;-54
2022/08/28 07:29:30;;;;;;;17.83;8.85;;;;;;;30.49;100.00;98155.69;5174466;27;20141;-51
2022/08/28 07:31:57;;;;;;;18.13;10.20;;;;;;;31.73;100.00;98211.13;5174550;27;20046;-54
2022/08/28 07:34:24;;;;;;;11.02;8.55;;;;;;;32.57;100.00;98241.22;5174555;27;20050;-55
2022/08/28 07:36:51;;;;;;;16.50;8.82;;;;;;;32.75;100.00;98242.50;5173094;27;20053;-54
2022/08/28 07:39:18;;;;;;;12.57;8.20;;;;;;;31.86;100.00;98254.50;5174511;27;20061;-53
2022/08/28 07:41:47;;;;;;;16.23;9.00;;;;;;;32.44;100.00;98230.59;5174145;27;20089;-54
2022/08/28 07:47:01;;;;;;;14.80;8.63;;;;;;;33.05;100.00;98276.38;5174262;27;20101;-52
2022/08/28 07:49:27;;;;;;;13.90;8.18;;;;;;;33.63;100.00;98304.06;5174151;27;20046;-53
2022/08/28 07:51:53;;;;;;;12.98;8.23;;;;;;;33.61;100.00;98322.97;5174151;27;20138;-55
2022/08/28 07:54:19;;;;;;;13.73;7.38;;;;;;;32.86;100.00;98326.72;5174471;27;20050;-55
2022/08/28 07:56:47;;;;;;;14.32;7.60;;;;;;;32.85;100.00;98333.69;5174062;27;20100;-55
2022/08/28 07:59:14;;;;;;;17.05;6.88;;;;;;;32.04;100.00;98328.78;5173952;27;20509;-55
2022/08/28 08:01:42;;;;;;;12.07;7.50;;;;;;;32.42;100.00;98343.81;5174172;27;20128;-55
2022/08/28 08:04:11;;;;;;;10.82;6.95;;;;;;;32.66;100.00;98334.47;5174083;27;20129;-55
2022/08/28 08:06:39;;;;;;;15.80;7.50;;;;;;;32.50;100.00;98321.28;5173860;27;20054;-55
2022/08/28 08:09:08;;;;;;;18.52;7.30;;;;;;;32.38;100.00;98343.31;5173706;27;20497;-55
2022/08/28 08:11:35;;;;;;;11.63;6.65;;;;;;;32.54;100.00;98330.25;5174195;27;20477;-55
2022/08/28 08:14:04;;;;;;;17.20;7.07;;;;;;;31.94;100.00;98356.72;5173601;27;20046;-54
2022/08/28 08:16:33;;;;;;;16.67;7.10;;;;;;;31.73;100.00;98347.91;5173981;27;20054;-54
2022/08/28 08:18:59;;;;;;;9.85;6.40;;;;;;;31.23;100.00;98326.44;5173824;27;20050;-53
2022/08/28 08:21:27;;;;;;;16.80;7.00;;;;;;;31.64;100.00;98334.84;5173904;27;20085;-55
2022/08/28 08:23:53;;;;;;;12.23;6.43;;;;;;;31.80;100.00;98335.97;5173897;27;20507;-53
2022/08/28 08:26:22;;;;;;;14.70;6.63;;;;;;;31.34;100.00;98319.94;5174184;27;20616;-52
2022/08/28 08:28:50;;;;;;;16.63;6.80;;;;;;;31.92;100.00;98327.38;5173662;27;20050;-55
2022/08/28 08:31:20;;;;;;;13.52;6.55;;;;;;;31.70;100.00;98326.28;5173487;27;20081;-54
2022/08/28 08:33:48;;;;;;;15.80;7.10;;;;;;;31.11;100.00;98294.59;5173399;27;20081;-54
2022/08/28 08:36:18;;;;;;;15.07;6.68;;;;;;;31.24;100.00;98293.97;5173312;27;20058;-56
2022/08/28 08:38:45;;;;;;;19.40;6.28;;;;;;;31.07;100.00;98324.50;5173784;27;20084;-55
2022/08/28 08:41:17;;;;;;;9.88;5.90;;;;;;;31.52;100.00;98370.22;5173400;27;20050;-51
2022/08/28 08:43:52;;;;;;;14.90;5.82;;;;;;;31.68;99.19;98374.22;5173464;27;20058;-55
2022/08/28 08:46:24;;;;;;;14.98;6.35;;;;;;;31.66;100.00;98368.31;5172922;27;20130;-55
2022/08/28 08:48:52;;;;;;;12.63;6.70;;;;;;;31.55;100.00;98355.00;5173137;27;20050;-51
2022/08/28 08:51:27;;;;;;;10.25;6.47;;;;;;;31.19;100.00;98351.44;5173353;27;20049;-51
2022/08/28 08:54:02;;;;;;;14.25;6.60;;;;;;;31.48;100.00;98343.50;5173280;27;20465;-55
2022/08/28 08:56:29;;;;;;;8.52;6.32;;;;;;;31.03;100.00;98332.50;5173192;27;20053;-51
2022/08/28 08:58:57;;;;;;;9.05;6.35;;;;;;;30.91;100.00;98346.72;5172919;27;20489;-54
2022/08/28 09:01:30;;;;;;;9.15;6.45;;;;;;;31.45;100.00;98355.88;5172979;27;20057;-55
2022/08/28 09:04:01;;;;;;;13.57;6.72;;;;;;;31.12;100.00;98332.97;5172990;27;20058;-53
2022/08/28 09:06:35;;;;;;;13.13;6.55;;;;;;;31.45;91.12;98393.47;5172865;27;20417;-54
2022/08/28 09:09:09;;;;;;;9.00;5.60;;;;;;;31.67;86.12;98405.91;5173420;27;20598;-53
2022/08/28 09:11:47;;;;;;;27.70;6.30;;;;;;;32.31;83.41;98412.00;5172728;27;20046;-53
2022/08/28 09:14:23;;;;;;;8.88;5.88;;;;;;;32.27;81.97;98408.69;5173066;27;20135;-54
2022/08/28 09:16:52;;;;;;;11.00;5.63;;;;;;;32.92;81.99;98418.22;5172793;27;20057;-52
2022/08/28 09:19:20;;;;;;;10.65;4.63;;;;;;;32.16;65.39;98466.31;5172704;27;20462;-55
2022/08/28 09:21:48;;;;;;;11.57;4.95;;;;;;;32.23;76.15;98440.19;5172710;27;20065;-51
2022/08/28 09:24:20;;;;;;;11.45;4.78;;;;;;;32.11;84.91;98407.56;5172656;27;20194;-51
2022/08/28 09:26:53;;;;;;;9.77;5.80;;;;;;;32.32;86.35;98396.50;5172655;27;20458;-54
2022/08/28 09:29:25;;;;;;;10.00;6.05;;;;;;;32.49;90.15;98393.50;5172729;27;20161;-55
2022/08/28 09:31:53;;;;;;;8.95;5.45;;;;;;;32.47;89.73;98391.22;5172779;27;20046;-52
2022/08/28 09:34:24;;;;;;;15.70;5.95;;;;;;;32.57;89.80;98388.78;5172495;27;20138;-54
2022/08/28 09:36:51;;;;;;;12.75;6.07;;;;;;;32.59;87.09;98400.38;5172820;27;20515;-52
2022/08/28 09:39:20;;;;;;;14.80;5.90;;;;;;;31.76;86.34;98408.41;5172369;27;20054;-50
2022/08/28 09:44:56;;;;;;;13.05;6.55;;;;;;;32.03;92.24;98378.28;5172671;27;20090;-52
2022/08/28 09:47:38;;;;;;;15.50;5.82;;;;;;;32.17;92.54;98376.34;5172271;27;20133;-54
2022/08/28 09:50:19;;;;;;;12.68;6.25;;;;;;;32.90;86.07;98396.06;5172557;27;20141;-54
2022/08/28 09:52:46;;;;;;;17.98;6.47;;;;;;;32.11;88.33;98382.81;5172602;27;20054;-54
2022/08/28 09:55:20;;;;;;;10.07;5.97;;;;;;;31.68;90.86;98379.88;5172368;27;20046;-54
2022/08/28 09:57:46;;;;;;;17.13;6.15;;;;;;;31.79;89.21;98387.50;5172007;27;20049;-54
2022/08/28 10:00:13;;;;;;;14.35;6.05;;;;;;;32.12;87.75;98377.91;5171502;27;20493;-54
2022/08/28 10:02:46;;;;;;;14.55;6.03;;;;;;;32.97;86.83;98380.53;5172118;27;20071;-53
2022/08/28 10:05:33;;;;;;;12.55;6.25;;;;;;;32.64;86.29;98385.31;5172095;27;20132;-54
2022/08/28 10:08:07;;;;;;;17.50;5.65;;;;;;;32.75;85.21;98393.66;5172210;27;20129;-53
2022/08/28 10:10:39;;;;;;;9.57;5.80;;;;;;;32.49;91.21;98363.09;5171893;27;20057;-54
2022/08/28 10:13:12;;;;;;;13.73;6.05;;;;;;;32.14;92.19;98360.38;5172117;27;20137;-53
2022/08/28 10:15:55;;;;;;;18.65;5.60;;;;;;;32.25;93.46;98358.16;5171817;27;20050;-53
2022/08/28 10:18:43;;;;;;;10.50;6.05;;;;;;;31.13;99.42;98350.72;5171827;27;20605;-55
2022/08/28 10:21:17;;;;;;;12.05;6.43;;;;;;;31.09;99.89;98339.66;5171938;27;20137;-52
2022/08/28 10:24:28;;;;;;;12.48;6.18;;;;;;;31.69;100.00;98333.25;5172092;27;20140;-53
2022/08/28 10:27:03;;;;;;;12.77;6.30;;;;;;;32.36;100.00;98326.09;5123348;27;20050;-52
2022/08/28 10:29:46;;;;;;;13.40;6.20;;;;;;;31.98;100.00;98316.75;5172015;27;20050;-50
2022/08/28 10:32:29;;;;;;;11.13;6.35;;;;;;;31.14;100.00;98323.94;5171544;27;20137;-52
2022/08/28 10:35:05;;;;;;;13.88;6.30;;;;;;;30.94;92.64;98354.16;5172006;27;20098;-52
2022/08/28 10:37:44;;;;;;;12.10;6.20;;;;;;;30.44;95.83;98335.38;5171643;27;20047;-53
2022/08/28 10:40:16;;;;;;;15.60;6.18;;;;;;;30.63;98.27;98331.97;5171875;27;20046;-53
2022/08/28 10:42:50;;;;;;;12.38;6.32;;;;;;;30.21;100.00;98317.75;5171617;27;20142;-50
2022/08/28 10:45:20;;;;;;;14.55;6.53;;;;;;;30.40;100.00;98300.19;5171750;27;20664;-50
2022/08/28 10:47:52;;;;;;;15.65;6.18;;;;;;;30.34;100.00;98291.75;5171525;27;20042;-52
2022/08/28 10:50:25;;;;;;;15.35;6.45;;;;;;;30.28;100.00;98279.69;5171487;27;20080;-51
2022/08/28 10:52:59;;;;;;;15.30;6.25;;;;;;;29.91;100.00;98263.88;5171767;27;20050;-50
2022/08/28 10:55:33;;;;;;;12.57;6.18;;;;;;;30.13;100.00;98259.44;5171722;27;20146;-50
2022/08/28 10:58:04;;;;;;;12.65;6.38;;;;;;;30.57;100.00;98254.84;5171946;27;20046;-52
2022/08/28 11:00:31;;;;;;;12.57;6.07;;;;;;;30.77;100.00;98262.22;5171148;27;20078;-50
2022/08/28 11:03:00;;;;;;;16.77;6.47;;;;;;;30.46;100.00;98250.03;5171370;27;20049;-51
2022/08/28 11:05:31;;;;;;;12.98;6.28;;;;;;;29.58;100.00;98269.59;5171399;27;20489;-53
2022/08/28 11:08:00;;;;;;;16.17;6.55;;;;;;;30.39;100.00;98267.53;5171378;27;20528;-54
2022/08/28 11:10:54;;;;;;;11.07;6.15;;;;;;;30.20;100.00;98304.91;5173006;27;20050;-54
2022/08/28 11:13:43;;;;;;;13.50;6.40;;;;;;;30.19;98.72;98316.72;5114689;27;20474;-54
2022/08/28 11:16:18;;;;;;;11.48;5.43;;;;;;;30.38;96.58;98317.66;5174927;27;20065;-50
2022/08/28 11:19:23;;;;;;;15.90;6.18;;;;;;;30.10;99.86;98312.13;5174772;27;20043;-52
2022/08/28 11:21:54;;;;;;;19.23;5.70;;;;;;;30.09;94.60;98332.41;5174608;27;20053;-52
2022/08/28 11:24:34;;;;;;;12.32;5.45;;;;;;;30.34;94.57;98324.91;5174879;27;20046;-52
2022/08/28 11:27:15;;;;;;;9.55;5.10;;;;;;;29.50;90.86;98340.72;5174652;27;20217;-50
2022/08/28 11:30:01;;;;;;;9.10;5.10;;;;;;;30.16;90.00;98341.13;5174966;27;20050;-50
2022/08/28 11:32:37;;;;;;;12.50;5.55;;;;;;;30.33;90.96;98329.78;5174531;27;20105;-53
2022/08/28 11:35:26;;;;;;;18.75;5.70;;;;;;;30.34;91.09;98325.66;5174450;27;20132;-53
2022/08/28 11:37:54;;;;;;;11.10;5.40;;;;;;;29.93;90.14;98331.19;5174556;27;20089;-50
2022/08/28 11:40:52;;;;;;;10.32;5.28;;;;;;;30.40;90.31;98337.72;5174429;27;20054;-49